sensor_id;sensor_type;location;lat;lon;timestamp;P1;durP1;ratioP1;P2;durP2;ratioP2
33170;SDS011;19535;50.672;4.206;2023-02-03T00:02:00;19.63;;;12.48;;
33170;SDS011;19535;50.672;4.206;2023-02-03T00:04:28;19.05;;;12.13;;
33170;SDS011;19535;50.672;4.206;2023-02-03T00:06:54;18.75;;;11.27;;
33170;SDS011;19535;50.672;4.206;2023-02-03T00:09:21;17.27;;;11.25;;
33170;SDS011;19535;50.672;4.206;2023-02-03T00:11:48;17.52;;;10.88;;
33170;SDS011;19535;50.672;4.206;2023-02-03T00:14:15;19.90;;;10.30;;
33170;SDS011;19535;50.672;4.206;2023-02-03T00:16:42;12.43;;;8.57;;
33170;SDS011;19535;50.672;4.206;2023-02-03T00:19:09;15.90;;;10.15;;
33170;SDS011;19535;50.672;4.206;2023-02-03T00:21:36;14.35;;;8.98;;
33170;SDS011;19535;50.672;4.206;2023-02-03T00:24:03;14.32;;;8.45;;
33170;SDS011;19535;50.672;4.206;2023-02-03T00:26:30;12.93;;;8.10;;
33170;SDS011;19535;50.672;4.206;2023-02-03T00:28:58;15.13;;;8.73;;
33170;SDS011;19535;50.672;4.206;2023-02-03T00:31:25;11.65;;;7.63;;
33170;SDS011;19535;50.672;4.206;2023-02-03T00:33:56;12.60;;;8.38;;
33170;SDS011;19535;50.672;4.206;2023-02-03T00:36:23;10.90;;;7.25;;
33170;SDS011;19535;50.672;4.206;2023-02-03T00:38:51;12.38;;;7.32;;
33170;SDS011;19535;50.672;4.206;2023-02-03T00:41:19;10.07;;;6.78;;
33170;SDS011;19535;50.672;4.206;2023-02-03T00:43:46;11.13;;;6.97;;
33170;SDS011;19535;50.672;4.206;2023-02-03T00:46:14;11.75;;;5.90;;
33170;SDS011;19535;50.672;4.206;2023-02-03T00:48:41;9.57;;;6.63;;
33170;SDS011;19535;50.672;4.206;2023-02-03T00:51:08;9.48;;;6.38;;
33170;SDS011;19535;50.672;4.206;2023-02-03T00:53:35;9.45;;;5.72;;
33170;SDS011;19535;50.672;4.206;2023-02-03T00:56:02;11.45;;;7.00;;
33170;SDS011;19535;50.672;4.206;2023-02-03T00:58:29;11.85;;;6.30;;
33170;SDS011;19535;50.672;4.206;2023-02-03T01:00:56;8.90;;;5.70;;
33170;SDS011;19535;50.672;4.206;2023-02-03T01:03:23;9.27;;;5.35;;
33170;SDS011;19535;50.672;4.206;2023-02-03T01:05:50;7.07;;;4.97;;
33170;SDS011;19535;50.672;4.206;2023-02-03T01:08:16;6.75;;;4.40;;
33170;SDS011;19535;50.672;4.206;2023-02-03T01:10:43;7.97;;;5.03;;
33170;SDS011;19535;50.672;4.206;2023-02-03T01:13:10;7.45;;;4.43;;
33170;SDS011;19535;50.672;4.206;2023-02-03T01:15:41;7.78;;;5.00;;
33170;SDS011;19535;50.672;4.206;2023-02-03T01:18:12;7.95;;;5.15;;
33170;SDS011;19535;50.672;4.206;2023-02-03T01:20:39;6.60;;;4.22;;
33170;SDS011;19535;50.672;4.206;2023-02-03T01:23:06;8.07;;;4.38;;
33170;SDS011;19535;50.672;4.206;2023-02-03T01:25:34;7.03;;;4.07;;
33170;SDS011;19535;50.672;4.206;2023-02-03T01:28:01;6.30;;;3.72;;
33170;SDS011;19535;50.672;4.206;2023-02-03T01:30:28;5.15;;;3.53;;
33170;SDS011;19535;50.672;4.206;2023-02-03T01:32:55;6.38;;;4.20;;
33170;SDS011;19535;50.672;4.206;2023-02-03T01:35:22;6.18;;;3.70;;
33170;SDS011;19535;50.672;4.206;2023-02-03T01:37:49;6.28;;;4.13;;
33170;SDS011;19535;50.672;4.206;2023-02-03T01:40:16;5.05;;;3.88;;
33170;SDS011;19535;50.672;4.206;2023-02-03T01:42:43;6.03;;;3.13;;
33170;SDS011;19535;50.672;4.206;2023-02-03T01:45:10;5.18;;;3.20;;
33170;SDS011;19535;50.672;4.206;2023-02-03T01:47:42;5.85;;;3.25;;
33170;SDS011;19535;50.672;4.206;2023-02-03T01:52:44;5.85;;;3.72;;
33170;SDS011;19535;50.672;4.206;2023-02-03T01:55:16;4.82;;;3.28;;
33170;SDS011;19535;50.672;4.206;2023-02-03T01:57:53;5.63;;;3.40;;
33170;SDS011;19535;50.672;4.206;2023-02-03T02:00:24;5.68;;;3.17;;
33170;SDS011;19535;50.672;4.206;2023-02-03T02:02:51;5.05;;;3.00;;
33170;SDS011;19535;50.672;4.206;2023-02-03T02:05:30;5.00;;;2.85;;
33170;SDS011;19535;50.672;4.206;2023-02-03T02:07:59;4.70;;;2.63;;
33170;SDS011;19535;50.672;4.206;2023-02-03T02:10:28;4.90;;;2.83;;
33170;SDS011;19535;50.672;4.206;2023-02-03T02:12:56;5.20;;;2.55;;
33170;SDS011;19535;50.672;4.206;2023-02-03T02:15:26;4.57;;;2.88;;
33170;SDS011;19535;50.672;4.206;2023-02-03T02:26:25;3.85;;;2.30;;
33170;SDS011;19535;50.672;4.206;2023-02-03T02:34:42;4.22;;;2.38;;
33170;SDS011;19535;50.672;4.206;2023-02-03T02:40:40;3.17;;;2.13;;
33170;SDS011;19535;50.672;4.206;2023-02-03T02:43:19;3.70;;;2.45;;
33170;SDS011;19535;50.672;4.206;2023-02-03T02:45:53;3.72;;;2.00;;
33170;SDS011;19535;50.672;4.206;2023-02-03T02:48:26;4.57;;;2.03;;
33170;SDS011;19535;50.672;4.206;2023-02-03T02:51:02;3.95;;;2.47;;
33170;SDS011;19535;50.672;4.206;2023-02-03T02:53:32;2.72;;;1.83;;
33170;SDS011;19535;50.672;4.206;2023-02-03T02:56:09;4.25;;;2.17;;
33170;SDS011;19535;50.672;4.206;2023-02-03T02:58:37;3.13;;;1.80;;
33170;SDS011;19535;50.672;4.206;2023-02-03T03:01:07;3.57;;;2.17;;
33170;SDS011;19535;50.672;4.206;2023-02-03T03:03:34;4.03;;;1.92;;
33170;SDS011;19535;50.672;4.206;2023-02-03T03:06:07;2.83;;;1.83;;
33170;SDS011;19535;50.672;4.206;2023-02-03T03:11:09;3.05;;;1.77;;
33170;SDS011;19535;50.672;4.206;2023-02-03T03:13:41;2.75;;;2.00;;
33170;SDS011;19535;50.672;4.206;2023-02-03T03:16:11;2.90;;;1.45;;
33170;SDS011;19535;50.672;4.206;2023-02-03T03:18:45;3.35;;;1.60;;
33170;SDS011;19535;50.672;4.206;2023-02-03T03:21:37;3.10;;;1.80;;
33170;SDS011;19535;50.672;4.206;2023-02-03T03:24:08;3.13;;;1.65;;
33170;SDS011;19535;50.672;4.206;2023-02-03T03:26:45;2.75;;;1.50;;
33170;SDS011;19535;50.672;4.206;2023-02-03T03:29:29;2.42;;;1.48;;
33170;SDS011;19535;50.672;4.206;2023-02-03T03:32:04;2.95;;;1.80;;
33170;SDS011;19535;50.672;4.206;2023-02-03T03:34:31;1.85;;;1.45;;
33170;SDS011;19535;50.672;4.206;2023-02-03T03:39:41;2.50;;;1.75;;
33170;SDS011;19535;50.672;4.206;2023-02-03T03:42:20;2.75;;;1.60;;
33170;SDS011;19535;50.672;4.206;2023-02-03T03:47:51;2.40;;;1.25;;
33170;SDS011;19535;50.672;4.206;2023-02-03T03:50:21;2.60;;;1.67;;
33170;SDS011;19535;50.672;4.206;2023-02-03T03:52:52;2.80;;;1.65;;
33170;SDS011;19535;50.672;4.206;2023-02-03T03:55:20;2.47;;;1.35;;
33170;SDS011;19535;50.672;4.206;2023-02-03T03:57:54;1.50;;;1.00;;
33170;SDS011;19535;50.672;4.206;2023-02-03T04:00:27;3.63;;;1.52;;
33170;SDS011;19535;50.672;4.206;2023-02-03T04:02:57;2.55;;;1.20;;
33170;SDS011;19535;50.672;4.206;2023-02-03T04:05:26;2.47;;;1.17;;
33170;SDS011;19535;50.672;4.206;2023-02-03T04:07:53;2.72;;;1.23;;
33170;SDS011;19535;50.672;4.206;2023-02-03T04:10:30;1.80;;;1.00;;
33170;SDS011;19535;50.672;4.206;2023-02-03T04:13:03;2.20;;;1.30;;
33170;SDS011;19535;50.672;4.206;2023-02-03T04:15:31;2.08;;;1.25;;
33170;SDS011;19535;50.672;4.206;2023-02-03T04:17:58;2.83;;;1.40;;
33170;SDS011;19535;50.672;4.206;2023-02-03T04:20:27;2.67;;;1.30;;
33170;SDS011;19535;50.672;4.206;2023-02-03T04:22:55;2.28;;;1.50;;
33170;SDS011;19535;50.672;4.206;2023-02-03T04:25:22;2.47;;;1.42;;
33170;SDS011;19535;50.672;4.206;2023-02-03T04:27:49;1.77;;;1.05;;
33170;SDS011;19535;50.672;4.206;2023-02-03T04:30:16;2.53;;;1.30;;
33170;SDS011;19535;50.672;4.206;2023-02-03T04:32:44;2.67;;;1.13;;
33170;SDS011;19535;50.672;4.206;2023-02-03T04:35:11;1.73;;;1.35;;
33170;SDS011;19535;50.672;4.206;2023-02-03T04:37:38;1.23;;;0.80;;
33170;SDS011;19535;50.672;4.206;2023-02-03T04:40:05;1.63;;;0.90;;
33170;SDS011;19535;50.672;4.206;2023-02-03T04:42:35;1.33;;;1.02;;
33170;SDS011;19535;50.672;4.206;2023-02-03T04:45:04;2.25;;;1.33;;
33170;SDS011;19535;50.672;4.206;2023-02-03T04:47:32;2.60;;;1.30;;
33170;SDS011;19535;50.672;4.206;2023-02-03T04:49:59;1.55;;;1.00;;
33170;SDS011;19535;50.672;4.206;2023-02-03T04:52:26;1.83;;;0.95;;
33170;SDS011;19535;50.672;4.206;2023-02-03T04:54:53;2.08;;;1.13;;
33170;SDS011;19535;50.672;4.206;2023-02-03T04:57:20;1.70;;;1.00;;
33170;SDS011;19535;50.672;4.206;2023-02-03T04:59:47;1.65;;;1.05;;
33170;SDS011;19535;50.672;4.206;2023-02-03T05:02:14;3.38;;;1.10;;
33170;SDS011;19535;50.672;4.206;2023-02-03T05:04:41;2.00;;;0.93;;
33170;SDS011;19535;50.672;4.206;2023-02-03T05:07:08;1.98;;;1.00;;
33170;SDS011;19535;50.672;4.206;2023-02-03T05:09:35;1.52;;;0.85;;
33170;SDS011;19535;50.672;4.206;2023-02-03T05:12:02;2.08;;;1.00;;
33170;SDS011;19535;50.672;4.206;2023-02-03T05:14:29;1.25;;;1.00;;
33170;SDS011;19535;50.672;4.206;2023-02-03T05:16:56;1.60;;;0.88;;
33170;SDS011;19535;50.672;4.206;2023-02-03T05:19:23;1.35;;;0.90;;
33170;SDS011;19535;50.672;4.206;2023-02-03T05:21:49;1.75;;;1.17;;
33170;SDS011;19535;50.672;4.206;2023-02-03T05:24:16;1.67;;;1.05;;
33170;SDS011;19535;50.672;4.206;2023-02-03T05:26:43;2.08;;;1.00;;
33170;SDS011;19535;50.672;4.206;2023-02-03T05:29:10;1.55;;;0.88;;
33170;SDS011;19535;50.672;4.206;2023-02-03T05:31:37;2.38;;;1.30;;
33170;SDS011;19535;50.672;4.206;2023-02-03T05:34:04;2.22;;;1.00;;
33170;SDS011;19535;50.672;4.206;2023-02-03T05:36:31;1.58;;;1.00;;
33170;SDS011;19535;50.672;4.206;2023-02-03T05:38:58;2.33;;;1.00;;
33170;SDS011;19535;50.672;4.206;2023-02-03T05:41:25;1.67;;;0.98;;
33170;SDS011;19535;50.672;4.206;2023-02-03T05:44:10;1.40;;;0.90;;
33170;SDS011;19535;50.672;4.206;2023-02-03T05:46:37;0.98;;;0.80;;
33170;SDS011;19535;50.672;4.206;2023-02-03T05:49:04;1.50;;;0.80;;
33170;SDS011;19535;50.672;4.206;2023-02-03T05:51:31;1.98;;;0.85;;
33170;SDS011;19535;50.672;4.206;2023-02-03T05:53:58;1.92;;;1.02;;
33170;SDS011;19535;50.672;4.206;2023-02-03T05:56:25;1.88;;;0.82;;
33170;SDS011;19535;50.672;4.206;2023-02-03T05:58:51;2.45;;;1.20;;
33170;SDS011;19535;50.672;4.206;2023-02-03T06:01:18;2.65;;;1.05;;
33170;SDS011;19535;50.672;4.206;2023-02-03T06:03:46;1.75;;;0.93;;
33170;SDS011;19535;50.672;4.206;2023-02-03T06:06:13;1.42;;;0.80;;
33170;SDS011;19535;50.672;4.206;2023-02-03T06:08:41;1.58;;;0.80;;
33170;SDS011;19535;50.672;4.206;2023-02-03T06:11:08;1.95;;;0.88;;
33170;SDS011;19535;50.672;4.206;2023-02-03T06:13:35;2.00;;;1.05;;
33170;SDS011;19535;50.672;4.206;2023-02-03T06:16:02;2.22;;;0.90;;
33170;SDS011;19535;50.672;4.206;2023-02-03T06:18:29;2.10;;;0.90;;
33170;SDS011;19535;50.672;4.206;2023-02-03T06:20:56;1.35;;;0.77;;
33170;SDS011;19535;50.672;4.206;2023-02-03T06:23:23;1.75;;;0.90;;
33170;SDS011;19535;50.672;4.206;2023-02-03T06:25:50;1.40;;;0.90;;
33170;SDS011;19535;50.672;4.206;2023-02-03T06:28:17;1.70;;;0.88;;
33170;SDS011;19535;50.672;4.206;2023-02-03T06:30:48;1.08;;;0.63;;
33170;SDS011;19535;50.672;4.206;2023-02-03T06:33:16;1.05;;;0.57;;
33170;SDS011;19535;50.672;4.206;2023-02-03T06:35:42;1.15;;;0.60;;
33170;SDS011;19535;50.672;4.206;2023-02-03T06:38:09;1.88;;;0.90;;
33170;SDS011;19535;50.672;4.206;2023-02-03T06:40:36;1.10;;;0.52;;
33170;SDS011;19535;50.672;4.206;2023-02-03T06:43:04;1.17;;;0.77;;
33170;SDS011;19535;50.672;4.206;2023-02-03T06:45:31;0.85;;;0.65;;
33170;SDS011;19535;50.672;4.206;2023-02-03T06:47:58;1.05;;;0.60;;
33170;SDS011;19535;50.672;4.206;2023-02-03T06:50:25;1.25;;;0.70;;
33170;SDS011;19535;50.672;4.206;2023-02-03T06:52:52;2.08;;;0.90;;
33170;SDS011;19535;50.672;4.206;2023-02-03T06:55:19;0.70;;;0.60;;
33170;SDS011;19535;50.672;4.206;2023-02-03T06:57:46;1.25;;;0.70;;
33170;SDS011;19535;50.672;4.206;2023-02-03T07:00:15;0.95;;;0.60;;
33170;SDS011;19535;50.672;4.206;2023-02-03T07:02:53;1.75;;;1.00;;
33170;SDS011;19535;50.672;4.206;2023-02-03T07:05:22;1.10;;;0.63;;
33170;SDS011;19535;50.672;4.206;2023-02-03T07:07:50;1.25;;;0.80;;
33170;SDS011;19535;50.672;4.206;2023-02-03T07:10:17;2.30;;;0.82;;
33170;SDS011;19535;50.672;4.206;2023-02-03T07:12:44;1.55;;;0.65;;
33170;SDS011;19535;50.672;4.206;2023-02-03T07:15:11;1.25;;;0.70;;
33170;SDS011;19535;50.672;4.206;2023-02-03T07:17:38;1.17;;;0.65;;
33170;SDS011;19535;50.672;4.206;2023-02-03T07:20:05;3.20;;;1.08;;
33170;SDS011;19535;50.672;4.206;2023-02-03T07:22:33;1.55;;;0.68;;
33170;SDS011;19535;50.672;4.206;2023-02-03T07:25:01;1.15;;;0.65;;
33170;SDS011;19535;50.672;4.206;2023-02-03T07:27:28;0.93;;;0.60;;
33170;SDS011;19535;50.672;4.206;2023-02-03T07:29:55;1.40;;;0.65;;
33170;SDS011;19535;50.672;4.206;2023-02-03T07:32:22;0.95;;;0.63;;
33170;SDS011;19535;50.672;4.206;2023-02-03T07:34:49;1.08;;;0.52;;
33170;SDS011;19535;50.672;4.206;2023-02-03T07:37:16;1.63;;;0.50;;
33170;SDS011;19535;50.672;4.206;2023-02-03T07:39:42;1.23;;;0.70;;
33170;SDS011;19535;50.672;4.206;2023-02-03T07:42:11;1.00;;;0.60;;
33170;SDS011;19535;50.672;4.206;2023-02-03T07:44:38;1.13;;;0.70;;
33170;SDS011;19535;50.672;4.206;2023-02-03T07:47:05;1.73;;;0.70;;
33170;SDS011;19535;50.672;4.206;2023-02-03T07:49:31;1.88;;;0.50;;
33170;SDS011;19535;50.672;4.206;2023-02-03T07:51:58;1.40;;;0.80;;
33170;SDS011;19535;50.672;4.206;2023-02-03T07:54:25;1.08;;;0.55;;
33170;SDS011;19535;50.672;4.206;2023-02-03T07:56:52;1.80;;;0.73;;
33170;SDS011;19535;50.672;4.206;2023-02-03T07:59:20;1.35;;;0.60;;
33170;SDS011;19535;50.672;4.206;2023-02-03T08:01:47;1.35;;;0.75;;
33170;SDS011;19535;50.672;4.206;2023-02-03T08:04:14;1.42;;;0.95;;
33170;SDS011;19535;50.672;4.206;2023-02-03T08:06:42;2.35;;;0.70;;
33170;SDS011;19535;50.672;4.206;2023-02-03T08:09:09;1.80;;;0.80;;
33170;SDS011;19535;50.672;4.206;2023-02-03T08:11:36;3.85;;;3.45;;
33170;SDS011;19535;50.672;4.206;2023-02-03T08:14:03;9.38;;;8.48;;
33170;SDS011;19535;50.672;4.206;2023-02-03T08:16:30;9.15;;;8.45;;
33170;SDS011;19535;50.672;4.206;2023-02-03T08:18:57;8.52;;;7.82;;
33170;SDS011;19535;50.672;4.206;2023-02-03T08:21:24;8.35;;;6.70;;
33170;SDS011;19535;50.672;4.206;2023-02-03T08:23:50;6.20;;;5.70;;
33170;SDS011;19535;50.672;4.206;2023-02-03T08:26:17;5.47;;;4.97;;
33170;SDS011;19535;50.672;4.206;2023-02-03T08:28:47;5.75;;;4.68;;
33170;SDS011;19535;50.672;4.206;2023-02-03T08:31:15;4.93;;;4.20;;
33170;SDS011;19535;50.672;4.206;2023-02-03T08:33:42;3.70;;;3.30;;
33170;SDS011;19535;50.672;4.206;2023-02-03T08:36:26;3.95;;;3.30;;
33170;SDS011;19535;50.672;4.206;2023-02-03T08:38:53;3.92;;;2.88;;
33170;SDS011;19535;50.672;4.206;2023-02-03T08:41:20;4.80;;;3.00;;
33170;SDS011;19535;50.672;4.206;2023-02-03T08:43:47;2.90;;;2.50;;
33170;SDS011;19535;50.672;4.206;2023-02-03T08:46:14;2.97;;;2.30;;
33170;SDS011;19535;50.672;4.206;2023-02-03T08:48:41;3.95;;;2.78;;
33170;SDS011;19535;50.672;4.206;2023-02-03T08:51:11;7.45;;;6.82;;
33170;SDS011;19535;50.672;4.206;2023-02-03T08:53:40;7.72;;;6.97;;
33170;SDS011;19535;50.672;4.206;2023-02-03T08:56:08;6.65;;;6.07;;
33170;SDS011;19535;50.672;4.206;2023-02-03T08:58:36;5.85;;;5.35;;
33170;SDS011;19535;50.672;4.206;2023-02-03T09:01:04;4.97;;;4.45;;
33170;SDS011;19535;50.672;4.206;2023-02-03T09:03:41;4.18;;;3.78;;
33170;SDS011;19535;50.672;4.206;2023-02-03T09:06:08;3.97;;;3.40;;
33170;SDS011;19535;50.672;4.206;2023-02-03T09:08:37;3.85;;;3.30;;
33170;SDS011;19535;50.672;4.206;2023-02-03T09:11:08;3.47;;;2.70;;
33170;SDS011;19535;50.672;4.206;2023-02-03T09:13:36;4.53;;;2.60;;
33170;SDS011;19535;50.672;4.206;2023-02-03T09:16:05;4.65;;;2.60;;
33170;SDS011;19535;50.672;4.206;2023-02-03T09:18:32;2.72;;;2.38;;
33170;SDS011;19535;50.672;4.206;2023-02-03T09:21:02;3.50;;;2.53;;
33170;SDS011;19535;50.672;4.206;2023-02-03T09:23:32;2.28;;;2.08;;
33170;SDS011;19535;50.672;4.206;2023-02-03T09:26:03;2.03;;;1.80;;
33170;SDS011;19535;50.672;4.206;2023-02-03T09:28:31;2.10;;;1.80;;
33170;SDS011;19535;50.672;4.206;2023-02-03T09:31:02;2.33;;;2.00;;
33170;SDS011;19535;50.672;4.206;2023-02-03T09:33:34;3.03;;;1.73;;
33170;SDS011;19535;50.672;4.206;2023-02-03T09:36:01;3.22;;;1.83;;
33170;SDS011;19535;50.672;4.206;2023-02-03T09:38:28;1.85;;;1.58;;
33170;SDS011;19535;50.672;4.206;2023-02-03T09:43:42;10.35;;;8.88;;
33170;SDS011;19535;50.672;4.206;2023-02-03T09:46:20;11.80;;;6.50;;
33170;SDS011;19535;50.672;4.206;2023-02-03T09:48:53;6.60;;;5.90;;
33170;SDS011;19535;50.672;4.206;2023-02-03T09:51:33;5.22;;;4.72;;
33170;SDS011;19535;50.672;4.206;2023-02-03T09:54:04;4.88;;;4.40;;
33170;SDS011;19535;50.672;4.206;2023-02-03T09:56:36;6.40;;;5.80;;
33170;SDS011;19535;50.672;4.206;2023-02-03T09:59:05;9.38;;;7.60;;
33170;SDS011;19535;50.672;4.206;2023-02-03T10:01:45;12.43;;;11.27;;
33170;SDS011;19535;50.672;4.206;2023-02-03T10:06:59;12.80;;;11.60;;
33170;SDS011;19535;50.672;4.206;2023-02-03T10:12:39;8.68;;;7.85;;
33170;SDS011;19535;50.672;4.206;2023-02-03T10:15:33;6.38;;;5.88;;
33170;SDS011;19535;50.672;4.206;2023-02-03T10:18:16;5.30;;;4.85;;
33170;SDS011;19535;50.672;4.206;2023-02-03T10:21:13;4.55;;;4.15;;
33170;SDS011;19535;50.672;4.206;2023-02-03T10:23:47;4.28;;;3.97;;
33170;SDS011;19535;50.672;4.206;2023-02-03T10:26:15;3.80;;;3.50;;
33170;SDS011;19535;50.672;4.206;2023-02-03T10:28:55;3.67;;;3.30;;
33170;SDS011;19535;50.672;4.206;2023-02-03T10:31:25;3.47;;;3.17;;
33170;SDS011;19535;50.672;4.206;2023-02-03T10:36:53;2.97;;;2.60;;
33170;SDS011;19535;50.672;4.206;2023-02-03T10:39:30;2.80;;;2.60;;
33170;SDS011;19535;50.672;4.206;2023-02-03T10:42:06;2.70;;;2.50;;
33170;SDS011;19535;50.672;4.206;2023-02-03T10:44:35;2.78;;;2.58;;
33170;SDS011;19535;50.672;4.206;2023-02-03T10:47:14;2.93;;;2.60;;
33170;SDS011;19535;50.672;4.206;2023-02-03T10:49:53;2.30;;;2.10;;
33170;SDS011;19535;50.672;4.206;2023-02-03T10:52:32;3.03;;;2.40;;
33170;SDS011;19535;50.672;4.206;2023-02-03T10:55:33;2.70;;;2.25;;
33170;SDS011;19535;50.672;4.206;2023-02-03T10:57:56;2.92;;;2.30;;
33170;SDS011;19535;50.672;4.206;2023-02-03T11:00:27;2.80;;;2.35;;
33170;SDS011;19535;50.672;4.206;2023-02-03T11:03:05;2.50;;;2.05;;
33170;SDS011;19535;50.672;4.206;2023-02-03T11:05:33;1.88;;;1.70;;
33170;SDS011;19535;50.672;4.206;2023-02-03T11:08:00;3.88;;;1.80;;
33170;SDS011;19535;50.672;4.206;2023-02-03T11:21:05;6.40;;;5.40;;
33170;SDS011;19535;50.672;4.206;2023-02-03T11:23:37;5.45;;;4.95;;
33170;SDS011;19535;50.672;4.206;2023-02-03T11:26:11;5.00;;;4.50;;
33170;SDS011;19535;50.672;4.206;2023-02-03T11:28:40;4.03;;;3.63;;
33170;SDS011;19535;50.672;4.206;2023-02-03T11:31:26;3.78;;;3.47;;
33170;SDS011;19535;50.672;4.206;2023-02-03T11:34:03;4.07;;;3.03;;
33170;SDS011;19535;50.672;4.206;2023-02-03T11:36:33;4.00;;;3.22;;
33170;SDS011;19535;50.672;4.206;2023-02-03T11:39:09;3.30;;;3.00;;
33170;SDS011;19535;50.672;4.206;2023-02-03T11:41:43;4.32;;;2.83;;
33170;SDS011;19535;50.672;4.206;2023-02-03T11:44:15;2.85;;;2.65;;
33170;SDS011;19535;50.672;4.206;2023-02-03T11:46:48;4.32;;;2.50;;
33170;SDS011;19535;50.672;4.206;2023-02-03T11:55:28;24.42;;;7.97;;
33170;SDS011;19535;50.672;4.206;2023-02-03T11:58:13;22.95;;;9.40;;
33170;SDS011;19535;50.672;4.206;2023-02-03T12:03:48;29.60;;;12.10;;
33170;SDS011;19535;50.672;4.206;2023-02-03T12:06:23;35.20;;;12.82;;
33170;SDS011;19535;50.672;4.206;2023-02-03T12:17:46;30.70;;;12.73;;
33170;SDS011;19535;50.672;4.206;2023-02-03T12:20:29;29.90;;;12.68;;
33170;SDS011;19535;50.672;4.206;2023-02-03T12:28:44;36.38;;;20.98;;
33170;SDS011;19535;50.672;4.206;2023-02-03T12:39:37;31.05;;;17.08;;
33170;SDS011;19535;50.672;4.206;2023-02-03T12:44:46;23.70;;;14.35;;
33170;SDS011;19535;50.672;4.206;2023-02-03T12:49:52;23.10;;;13.43;;
33170;SDS011;19535;50.672;4.206;2023-02-03T12:52:36;24.27;;;13.48;;
33170;SDS011;19535;50.672;4.206;2023-02-03T12:55:24;21.50;;;12.27;;
33170;SDS011;19535;50.672;4.206;2023-02-03T12:57:55;23.52;;;12.15;;
33170;SDS011;19535;50.672;4.206;2023-02-03T13:03:17;17.02;;;10.35;;
33170;SDS011;19535;50.672;4.206;2023-02-03T13:08:45;18.85;;;10.45;;
33170;SDS011;19535;50.672;4.206;2023-02-03T13:11:37;16.73;;;9.82;;
33170;SDS011;19535;50.672;4.206;2023-02-03T13:16:41;19.80;;;9.85;;
33170;SDS011;19535;50.672;4.206;2023-02-03T13:19:12;25.25;;;13.95;;
33170;SDS011;19535;50.672;4.206;2023-02-03T13:21:42;24.60;;;15.23;;
33170;SDS011;19535;50.672;4.206;2023-02-03T13:24:11;20.20;;;13.25;;
33170;SDS011;19535;50.672;4.206;2023-02-03T13:29:44;20.77;;;12.18;;
33170;SDS011;19535;50.672;4.206;2023-02-03T13:35:33;15.45;;;10.38;;
33170;SDS011;19535;50.672;4.206;2023-02-03T13:43:37;12.13;;;7.53;;
33170;SDS011;19535;50.672;4.206;2023-02-03T13:46:06;11.73;;;8.10;;
33170;SDS011;19535;50.672;4.206;2023-02-03T13:48:43;12.70;;;7.75;;
33170;SDS011;19535;50.672;4.206;2023-02-03T13:51:17;14.00;;;8.50;;
33170;SDS011;19535;50.672;4.206;2023-02-03T13:53:47;17.65;;;8.13;;
33170;SDS011;19535;50.672;4.206;2023-02-03T13:56:24;12.05;;;7.43;;
33170;SDS011;19535;50.672;4.206;2023-02-03T14:01:32;14.30;;;7.57;;
33170;SDS011;19535;50.672;4.206;2023-02-03T14:04:02;12.15;;;6.38;;
33170;SDS011;19535;50.672;4.206;2023-02-03T14:09:37;11.85;;;6.63;;
33170;SDS011;19535;50.672;4.206;2023-02-03T14:12:39;11.73;;;6.00;;
33170;SDS011;19535;50.672;4.206;2023-02-03T14:14:55;8.93;;;5.97;;
33170;SDS011;19535;50.672;4.206;2023-02-03T14:19:59;10.27;;;5.70;;
33170;SDS011;19535;50.672;4.206;2023-02-03T14:22:27;11.00;;;5.95;;
33170;SDS011;19535;50.672;4.206;2023-02-03T14:24:55;10.70;;;5.88;;
33170;SDS011;19535;50.672;4.206;2023-02-03T14:27:24;10.93;;;5.78;;
33170;SDS011;19535;50.672;4.206;2023-02-03T14:35:16;8.73;;;4.90;;
33170;SDS011;19535;50.672;4.206;2023-02-03T14:37:51;11.10;;;5.35;;
33170;SDS011;19535;50.672;4.206;2023-02-03T14:40:29;10.93;;;5.13;;
33170;SDS011;19535;50.672;4.206;2023-02-03T14:43:07;8.48;;;5.15;;
33170;SDS011;19535;50.672;4.206;2023-02-03T14:56:54;10.48;;;4.68;;
33170;SDS011;19535;50.672;4.206;2023-02-03T14:59:47;7.20;;;4.53;;
33170;SDS011;19535;50.672;4.206;2023-02-03T15:02:17;7.45;;;4.75;;
33170;SDS011;19535;50.672;4.206;2023-02-03T15:05:37;10.60;;;4.57;;
33170;SDS011;19535;50.672;4.206;2023-02-03T15:07:41;9.23;;;4.53;;
33170;SDS011;19535;50.672;4.206;2023-02-03T15:10:19;9.57;;;4.30;;
33170;SDS011;19535;50.672;4.206;2023-02-03T15:12:50;10.30;;;4.13;;
33170;SDS011;19535;50.672;4.206;2023-02-03T15:15:19;7.47;;;4.07;;
33170;SDS011;19535;50.672;4.206;2023-02-03T15:17:48;6.90;;;4.53;;
33170;SDS011;19535;50.672;4.206;2023-02-03T15:22:55;7.17;;;4.00;;
33170;SDS011;19535;50.672;4.206;2023-02-03T15:25:22;6.88;;;3.72;;
33170;SDS011;19535;50.672;4.206;2023-02-03T15:27:51;8.75;;;4.40;;
33170;SDS011;19535;50.672;4.206;2023-02-03T15:30:25;7.15;;;4.43;;
33170;SDS011;19535;50.672;4.206;2023-02-03T15:32:58;5.45;;;3.80;;
33170;SDS011;19535;50.672;4.206;2023-02-03T15:35:29;5.47;;;3.72;;
33170;SDS011;19535;50.672;4.206;2023-02-03T15:38:02;6.95;;;4.10;;
33170;SDS011;19535;50.672;4.206;2023-02-03T15:40:52;5.47;;;3.85;;
33170;SDS011;19535;50.672;4.206;2023-02-03T15:43:25;6.22;;;4.53;;
33170;SDS011;19535;50.672;4.206;2023-02-03T15:51:30;8.13;;;4.43;;
33170;SDS011;19535;50.672;4.206;2023-02-03T15:54:14;6.28;;;4.20;;
33170;SDS011;19535;50.672;4.206;2023-02-03T15:57:13;6.93;;;3.30;;
33170;SDS011;19535;50.672;4.206;2023-02-03T15:59:43;5.53;;;3.75;;
33170;SDS011;19535;50.672;4.206;2023-02-03T16:02:49;6.30;;;3.65;;
33170;SDS011;19535;50.672;4.206;2023-02-03T16:05:18;5.95;;;3.75;;
33170;SDS011;19535;50.672;4.206;2023-02-03T16:07:49;6.28;;;3.67;;
33170;SDS011;19535;50.672;4.206;2023-02-03T16:10:32;4.97;;;3.55;;
33170;SDS011;19535;50.672;4.206;2023-02-03T16:16:13;7.15;;;3.70;;
33170;SDS011;19535;50.672;4.206;2023-02-03T16:18:55;6.45;;;3.75;;
33170;SDS011;19535;50.672;4.206;2023-02-03T16:21:24;4.95;;;3.10;;
33170;SDS011;19535;50.672;4.206;2023-02-03T16:23:55;5.97;;;3.53;;
33170;SDS011;19535;50.672;4.206;2023-02-03T16:26:23;5.57;;;3.25;;
33170;SDS011;19535;50.672;4.206;2023-02-03T16:29:10;6.03;;;3.53;;
33170;SDS011;19535;50.672;4.206;2023-02-03T16:31:56;4.38;;;3.33;;
33170;SDS011;19535;50.672;4.206;2023-02-03T16:34:42;4.85;;;3.20;;
33170;SDS011;19535;50.672;4.206;2023-02-03T16:37:28;4.00;;;2.70;;
33170;SDS011;19535;50.672;4.206;2023-02-03T16:40:17;4.50;;;3.50;;
33170;SDS011;19535;50.672;4.206;2023-02-03T16:43:10;20.15;;;18.33;;
33170;SDS011;19535;50.672;4.206;2023-02-03T16:45:57;57.30;;;51.25;;
33170;SDS011;19535;50.672;4.206;2023-02-03T16:48:43;100.13;;;89.90;;
33170;SDS011;19535;50.672;4.206;2023-02-03T16:51:33;91.22;;;81.70;;
33170;SDS011;19535;50.672;4.206;2023-02-03T16:54:04;79.70;;;71.53;;
33170;SDS011;19535;50.672;4.206;2023-02-03T16:56:32;66.60;;;59.75;;
33170;SDS011;19535;50.672;4.206;2023-02-03T16:58:58;59.33;;;52.67;;
33170;SDS011;19535;50.672;4.206;2023-02-03T17:01:25;51.95;;;46.92;;
33170;SDS011;19535;50.672;4.206;2023-02-03T17:03:52;46.92;;;42.15;;
33170;SDS011;19535;50.672;4.206;2023-02-03T17:06:19;41.90;;;37.80;;
33170;SDS011;19535;50.672;4.206;2023-02-03T17:08:45;38.92;;;35.15;;
33170;SDS011;19535;50.672;4.206;2023-02-03T17:11:16;34.90;;;31.77;;
33170;SDS011;19535;50.672;4.206;2023-02-03T17:13:45;33.38;;;30.08;;
33170;SDS011;19535;50.672;4.206;2023-02-03T17:16:14;33.25;;;30.13;;
33170;SDS011;19535;50.672;4.206;2023-02-03T17:18:45;52.67;;;47.47;;
33170;SDS011;19535;50.672;4.206;2023-02-03T17:21:13;49.25;;;44.58;;
33170;SDS011;19535;50.672;4.206;2023-02-03T17:23:42;45.25;;;41.00;;
33170;SDS011;19535;50.672;4.206;2023-02-03T17:26:09;40.47;;;36.83;;
33170;SDS011;19535;50.672;4.206;2023-02-03T17:28:37;37.30;;;33.75;;
33170;SDS011;19535;50.672;4.206;2023-02-03T17:31:05;32.50;;;29.73;;